createdAt,value
2018-03-24T00:00:11.031Z,30.23
2018-03-24T00:02:38.532Z,23.12
2018-03-24T00:05:05.999Z,23.95
2018-03-24T00:07:33.482Z,26.50
2018-03-24T00:10:00.934Z,24.73
2018-03-24T00:12:28.436Z,19.20
2018-03-24T00:14:55.910Z,24.77
2018-03-24T00:17:23.390Z,27.30
2018-03-24T00:19:50.850Z,25.88
2018-03-24T00:22:18.318Z,21.73
2018-03-24T00:24:45.777Z,25.55
2018-03-24T00:27:13.273Z,23.23
2018-03-24T00:29:40.775Z,21.62
2018-03-24T00:32:08.325Z,24.12
2018-03-24T00:34:35.956Z,23.17
2018-03-24T00:37:04.341Z,24.75
2018-03-24T00:39:31.817Z,27.25
2018-03-24T00:41:59.274Z,19.75
2018-03-24T00:44:26.753Z,22.83
2018-03-24T00:46:54.292Z,21.23
2018-03-24T00:49:21.761Z,24.45
2018-03-24T00:51:49.214Z,25.27
2018-03-24T00:54:16.686Z,21.90
2018-03-24T00:56:45.116Z,24.98
2018-03-24T00:59:12.580Z,19.55
2018-03-24T01:01:40.032Z,22.77
2018-03-24T01:04:07.509Z,25.67
2018-03-24T01:06:34.965Z,24.42
2018-03-24T01:09:02.438Z,23.30
2018-03-24T01:11:29.888Z,21.92
2018-03-24T01:13:57.370Z,24.08
2018-03-24T01:16:24.904Z,22.85
2018-03-24T01:18:52.365Z,28.95
2018-03-24T01:21:20.808Z,20.42
2018-03-24T01:23:48.268Z,18.90
2018-03-24T01:26:15.720Z,18.17
2018-03-24T01:28:43.187Z,19.87
2018-03-24T01:31:10.781Z,17.05
2018-03-24T01:33:38.244Z,20.10
2018-03-24T01:36:06.678Z,18.58
2018-03-24T01:38:34.148Z,20.73
2018-03-24T01:41:01.608Z,19.75
2018-03-24T01:43:29.088Z,17.87
2018-03-24T01:45:56.537Z,18.40
2018-03-24T01:48:24.014Z,14.87
2018-03-24T01:50:52.369Z,20.50
2018-03-24T01:53:19.834Z,19.25
2018-03-24T01:55:47.280Z,23.55
2018-03-24T01:58:14.760Z,17.23
2018-03-24T02:00:43.185Z,17.23
2018-03-24T02:03:10.677Z,15.90
2018-03-24T02:05:38.129Z,22.60
2018-03-24T02:08:05.596Z,17.27
2018-03-24T02:10:33.062Z,22.37
2018-03-24T02:13:00.536Z,17.67
2018-03-24T02:15:27.993Z,16.15
2018-03-24T02:17:55.517Z,18.55
2018-03-24T02:20:24.110Z,17.90
2018-03-24T02:22:51.553Z,18.75
2018-03-24T02:25:19.420Z,19.95
2018-03-24T02:27:47.893Z,18.45
2018-03-24T02:30:15.348Z,14.87
2018-03-24T02:32:42.832Z,17.67
2018-03-24T02:35:10.286Z,15.50
2018-03-24T02:37:38.745Z,15.75
2018-03-24T02:40:06.200Z,19.42
2018-03-24T02:42:33.682Z,16.95
2018-03-24T02:45:01.142Z,16.17
2018-03-24T02:47:28.627Z,15.52
2018-03-24T02:49:56.144Z,15.88
2018-03-24T02:52:23.618Z,14.95
2018-03-24T02:54:51.062Z,14.13
2018-03-24T02:57:18.612Z,18.20
2018-03-24T02:59:46.073Z,14.48
2018-03-24T03:02:13.541Z,12.90
2018-03-24T03:04:40.992Z,20.50
2018-03-24T03:07:08.462Z,15.27
2018-03-24T03:09:35.907Z,16.62
2018-03-24T03:12:03.361Z,20.98
2018-03-24T03:14:30.833Z,14.60
2018-03-24T03:16:58.286Z,15.85
2018-03-24T03:19:25.752Z,15.80
2018-03-24T03:21:53.264Z,15.45
2018-03-24T03:24:20.722Z,13.23
2018-03-24T03:26:48.175Z,18.35
2018-03-24T03:29:15.640Z,14.10
2018-03-24T03:34:42.082Z,17.25
2018-03-24T03:37:11.491Z,16.60
2018-03-24T03:39:38.996Z,14.65
2018-03-24T03:42:06.426Z,16.27
2018-03-24T03:44:34.870Z,15.55
2018-03-24T03:47:03.253Z,16.67
2018-03-24T03:49:30.726Z,15.25
2018-03-24T03:51:58.199Z,17.55
2018-03-24T03:54:25.654Z,15.73
2018-03-24T03:56:53.125Z,16.20
2018-03-24T03:59:20.591Z,16.62
2018-03-24T04:01:48.133Z,16.02
2018-03-24T04:04:15.589Z,18.62
2018-03-24T04:06:44.057Z,16.58
2018-03-24T04:09:11.502Z,12.45
2018-03-24T04:11:38.954Z,14.65
2018-03-24T04:14:08.383Z,13.02
2018-03-24T04:16:35.945Z,16.25
2018-03-24T04:19:03.405Z,14.10
2018-03-24T04:21:30.865Z,11.75
2018-03-24T04:23:58.324Z,13.77
2018-03-24T04:26:25.773Z,14.73
2018-03-24T04:28:53.249Z,12.15
2018-03-24T04:31:22.735Z,14.55
2018-03-24T04:33:50.201Z,14.77
2018-03-24T04:36:18.600Z,13.43
2018-03-24T04:38:48.034Z,13.18
2018-03-24T04:41:15.490Z,15.43
2018-03-24T04:43:44.902Z,14.82
2018-03-24T04:46:12.377Z,17.20
2018-03-24T04:48:39.850Z,15.20
2018-03-24T04:51:07.309Z,12.80
2018-03-24T04:53:34.786Z,14.65
2018-03-24T04:56:02.242Z,14.70
2018-03-24T04:58:29.718Z,12.27
2018-03-24T05:00:57.157Z,13.40
2018-03-24T05:03:24.626Z,16.10
2018-03-24T05:05:52.082Z,18.10
2018-03-24T05:08:19.594Z,12.88
2018-03-24T05:10:47.049Z,18.52
2018-03-24T05:13:14.525Z,15.35
2018-03-24T05:15:42.065Z,16.08
2018-03-24T05:18:09.531Z,11.15
2018-03-24T05:20:36.989Z,15.18
2018-03-24T05:23:05.458Z,17.10
2018-03-24T05:25:32.917Z,16.48
2018-03-24T05:28:00.372Z,17.83
2018-03-24T05:30:27.829Z,14.63
2018-03-24T05:32:55.302Z,19.25
2018-03-24T05:35:22.758Z,16.62
2018-03-24T05:37:51.206Z,15.57
2018-03-24T05:40:18.681Z,14.43
2018-03-24T05:42:48.077Z,16.92
2018-03-24T05:45:15.546Z,16.25
2018-03-24T05:47:43.014Z,17.00
2018-03-24T05:50:10.471Z,18.23
2018-03-24T05:52:37.937Z,15.45
2018-03-24T05:55:05.389Z,16.23
2018-03-24T05:57:32.862Z,16.20
2018-03-24T06:00:00.320Z,17.25
2018-03-24T06:02:27.800Z,22.20
2018-03-24T06:04:56.191Z,15.20
2018-03-24T06:07:24.579Z,17.70
2018-03-24T06:09:52.038Z,19.23
2018-03-24T06:12:19.497Z,20.02
2018-03-24T06:14:46.956Z,18.30
2018-03-24T06:17:14.420Z,18.02
2018-03-24T06:19:41.868Z,20.95
2018-03-24T06:22:09.356Z,19.52
2018-03-24T06:24:36.797Z,19.23
2018-03-24T06:27:04.262Z,18.90
2018-03-24T06:29:31.721Z,18.80
2018-03-24T06:32:12.522Z,18.05
2018-03-24T06:34:39.970Z,18.25
2018-03-24T06:37:13.126Z,17.10
2018-03-24T06:39:40.573Z,21.52
2018-03-24T06:42:08.038Z,15.75
2018-03-24T06:44:35.486Z,21.45
2018-03-24T06:47:03.056Z,22.52
2018-03-24T06:49:30.609Z,20.27
2018-03-24T06:51:58.270Z,21.05
2018-03-24T06:54:25.839Z,20.33
2018-03-24T06:56:53.399Z,18.95
2018-03-24T06:59:20.849Z,18.50
2018-03-24T07:01:48.414Z,18.87
2018-03-24T07:04:15.866Z,19.12
2018-03-24T07:06:43.346Z,18.75
2018-03-24T07:09:10.870Z,23.25
2018-03-24T07:11:38.328Z,20.30
2018-03-24T07:14:05.792Z,21.67
2018-03-24T07:16:33.262Z,19.80
2018-03-24T07:19:00.725Z,21.52
2018-03-24T07:21:28.269Z,24.12
2018-03-24T07:23:55.729Z,32.55
2018-03-24T07:26:24.194Z,20.23
2018-03-24T07:28:52.661Z,19.40
2018-03-24T07:31:22.246Z,22.73
2018-03-24T07:33:49.886Z,21.45
2018-03-24T07:36:18.313Z,22.45
2018-03-24T07:38:50.056Z,20.08
2018-03-24T07:41:18.459Z,21.02
2018-03-24T07:43:45.906Z,23.35
2018-03-24T07:46:13.381Z,20.52
2018-03-24T07:48:41.868Z,22.80
2018-03-24T07:51:09.341Z,20.95
2018-03-24T07:53:37.775Z,23.40
2018-03-24T07:56:05.255Z,20.90
2018-03-24T07:58:32.710Z,22.52
2018-03-24T08:01:00.188Z,21.25
2018-03-24T08:03:27.649Z,22.95
2018-03-24T08:05:56.126Z,25.88
2018-03-24T08:08:23.601Z,19.73
2018-03-24T08:10:51.136Z,27.65
2018-03-24T08:13:18.684Z,22.98
2018-03-24T08:15:46.159Z,28.92
2018-03-24T08:18:13.702Z,20.85
2018-03-24T08:20:41.197Z,25.95
2018-03-24T08:23:09.604Z,25.35
2018-03-24T08:25:38.015Z,27.15
2018-03-24T08:28:05.490Z,30.17
2018-03-24T08:30:33.934Z,26.52
2018-03-24T08:33:01.401Z,27.33
2018-03-24T08:35:28.925Z,28.92
2018-03-24T08:37:56.393Z,24.80
2018-03-24T08:40:23.871Z,27.73
2018-03-24T08:42:51.329Z,28.40
2018-03-24T08:45:19.713Z,25.62
2018-03-24T08:47:47.164Z,27.65
2018-03-24T08:50:14.629Z,29.70
2018-03-24T08:52:42.097Z,28.80
2018-03-24T08:55:09.554Z,23.38
2018-03-24T08:57:37.056Z,24.73
2018-03-24T09:00:04.525Z,30.30
2018-03-24T09:02:31.981Z,24.05
2018-03-24T09:04:59.461Z,25.00
2018-03-24T09:07:32.024Z,24.98
2018-03-24T09:09:59.621Z,26.55
2018-03-24T09:12:27.081Z,24.70
2018-03-24T09:14:54.558Z,27.08
2018-03-24T09:17:22.082Z,25.55
2018-03-24T09:19:49.565Z,26.67
2018-03-24T09:22:17.123Z,27.05
2018-03-24T09:24:44.563Z,28.80
2018-03-24T09:27:12.066Z,29.67
2018-03-24T09:29:39.529Z,30.90
2018-03-24T09:32:07.050Z,25.00
2018-03-24T09:34:34.509Z,25.12
2018-03-24T09:37:01.993Z,31.27
2018-03-24T09:39:29.495Z,30.02
2018-03-24T09:41:56.961Z,28.73
2018-03-24T09:44:24.440Z,35.08
2018-03-24T09:46:51.936Z,33.85
2018-03-24T09:49:19.394Z,29.90
2018-03-24T09:51:46.865Z,27.37
2018-03-24T09:54:15.329Z,29.23
2018-03-24T09:56:42.797Z,33.13
2018-03-24T09:59:10.254Z,28.13
2018-03-24T10:01:37.757Z,29.73
2018-03-24T10:04:05.214Z,39.23
2018-03-24T10:06:32.686Z,29.87
2018-03-24T10:09:00.201Z,33.00
2018-03-24T10:11:27.717Z,32.70
2018-03-24T10:13:55.181Z,31.10
2018-03-24T10:16:22.665Z,35.33
2018-03-24T10:18:50.113Z,33.30
2018-03-24T10:24:18.220Z,31.97
2018-03-24T10:26:46.690Z,36.97
2018-03-24T10:29:14.162Z,34.10
2018-03-24T10:31:41.614Z,37.60
2018-03-24T10:34:10.113Z,30.83
2018-03-24T10:36:37.662Z,30.63
2018-03-24T10:39:05.135Z,38.50
2018-03-24T10:41:32.620Z,32.53
2018-03-24T10:44:00.098Z,35.87
2018-03-24T10:46:29.508Z,35.93
2018-03-24T10:48:56.985Z,40.00
2018-03-24T10:51:24.441Z,37.37
2018-03-24T10:53:51.889Z,37.67
2018-03-24T10:56:20.277Z,46.00
2018-03-24T10:58:48.748Z,45.73
2018-03-24T11:01:21.662Z,56.50
2018-03-24T11:03:49.130Z,45.03
2018-03-24T11:06:16.598Z,46.53
2018-03-24T11:08:45.026Z,41.17
2018-03-24T11:11:12.502Z,40.10
2018-03-24T11:13:40.006Z,46.77
2018-03-24T11:16:07.488Z,47.63
2018-03-24T11:18:34.944Z,46.17
2018-03-24T11:21:03.338Z,40.77
2018-03-24T11:23:30.799Z,42.10
2018-03-24T11:25:58.273Z,47.77
2018-03-24T11:28:25.743Z,48.30
2018-03-24T11:30:53.248Z,43.80
2018-03-24T11:33:21.650Z,42.60
2018-03-24T11:35:53.401Z,51.33
2018-03-24T11:38:20.897Z,42.90
2018-03-24T11:40:49.349Z,42.97
2018-03-24T11:43:16.914Z,44.67
2018-03-24T11:45:44.414Z,39.23
2018-03-24T11:48:11.878Z,54.93
2018-03-24T11:50:39.359Z,48.10
2018-03-24T11:53:07.739Z,47.00
2018-03-24T11:55:35.222Z,47.63
2018-03-24T11:58:02.685Z,42.53
2018-03-24T12:00:30.156Z,44.10
2018-03-24T12:02:57.617Z,44.40
2018-03-24T12:05:25.104Z,51.50
2018-03-24T12:07:52.601Z,49.87
2018-03-24T12:10:20.077Z,49.63
2018-03-24T12:12:47.539Z,59.00
2018-03-24T12:15:18.470Z,62.57
2018-03-24T12:17:45.942Z,53.40
2018-03-24T12:20:15.419Z,46.40
2018-03-24T12:22:42.882Z,43.40
2018-03-24T12:25:10.352Z,50.67
2018-03-24T12:27:38.780Z,41.93
2018-03-24T12:30:06.261Z,52.00
2018-03-24T12:32:33.737Z,47.20
2018-03-24T12:35:01.289Z,49.67
2018-03-24T12:37:28.845Z,53.93
2018-03-24T12:39:56.328Z,47.60
2018-03-24T12:42:24.758Z,48.20
2018-03-24T12:44:52.236Z,38.60
2018-03-24T12:47:19.712Z,43.73
2018-03-24T12:49:47.300Z,40.70
2018-03-24T12:52:14.756Z,47.33
2018-03-24T12:54:42.272Z,45.80
2018-03-24T12:57:09.733Z,46.30
2018-03-24T12:59:37.201Z,46.67
2018-03-24T13:02:04.659Z,46.17
2018-03-24T13:04:32.209Z,52.37
2018-03-24T13:06:59.669Z,70.60
2018-03-24T13:09:27.165Z,87.70
2018-03-24T13:11:54.633Z,59.40
2018-03-24T13:14:22.139Z,37.70
2018-03-24T13:16:49.601Z,46.22
2018-03-24T13:19:17.091Z,41.93
2018-03-24T13:21:44.580Z,44.30
2018-03-24T13:24:12.075Z,52.90
2018-03-24T13:26:39.541Z,45.37
2018-03-24T13:29:07.013Z,42.97
2018-03-24T13:31:34.465Z,48.47
2018-03-24T13:34:01.950Z,45.80
2018-03-24T13:36:29.416Z,45.00
2018-03-24T13:38:56.890Z,51.00
2018-03-24T13:41:24.500Z,43.50
2018-03-24T13:43:51.938Z,43.07
2018-03-24T13:46:19.441Z,43.10
2018-03-24T13:48:46.965Z,39.83
2018-03-24T13:51:14.455Z,42.67
2018-03-24T13:53:42.871Z,49.67
2018-03-24T13:56:10.334Z,42.13
2018-03-24T13:58:37.802Z,42.40
2018-03-24T14:01:05.279Z,45.60
2018-03-24T14:03:33.734Z,43.20
2018-03-24T14:06:02.219Z,48.63
2018-03-24T14:08:29.810Z,44.40
2018-03-24T14:10:57.265Z,42.93
2018-03-24T14:13:24.785Z,43.60
2018-03-24T14:15:52.256Z,43.40
2018-03-24T14:18:19.725Z,39.00
2018-03-24T14:20:47.263Z,46.40
2018-03-24T14:23:14.746Z,42.67
2018-03-24T14:25:44.114Z,39.80
2018-03-24T14:28:11.679Z,48.67
2018-03-24T14:30:39.159Z,47.17
2018-03-24T14:33:06.643Z,42.87
2018-03-24T14:35:35.013Z,43.80
2018-03-24T14:38:02.490Z,68.37
2018-03-24T14:40:30.881Z,48.97
2018-03-24T14:42:58.359Z,45.87
2018-03-24T14:45:25.846Z,42.77
2018-03-24T14:47:53.330Z,51.60
2018-03-24T14:50:20.788Z,53.83
2018-03-24T14:52:48.265Z,52.80
2018-03-24T14:55:15.722Z,46.30
2018-03-24T14:57:43.191Z,55.50
2018-03-24T15:00:10.678Z,55.23
2018-03-24T15:02:38.158Z,56.30
2018-03-24T15:05:07.643Z,54.27
2018-03-24T15:07:35.123Z,48.83
2018-03-24T15:10:06.036Z,46.40
2018-03-24T15:12:33.581Z,45.50
2018-03-24T15:15:01.016Z,44.90
2018-03-24T15:17:28.614Z,40.93
2018-03-24T15:19:56.082Z,45.70
2018-03-24T15:22:23.567Z,46.43
2018-03-24T15:24:51.978Z,46.70
2018-03-24T15:27:19.478Z,48.17
2018-03-24T15:29:58.921Z,46.80
2018-03-24T15:32:39.201Z,43.73
2018-03-24T15:35:18.487Z,45.00
2018-03-24T15:37:46.929Z,49.77
2018-03-24T15:40:15.515Z,57.97
2018-03-24T15:42:45.060Z,54.73
2018-03-24T15:45:12.605Z,48.53
2018-03-24T15:47:40.069Z,43.20
2018-03-24T15:50:08.603Z,49.67
2018-03-24T15:52:36.057Z,50.10
2018-03-24T15:55:03.808Z,49.73
2018-03-24T15:57:31.285Z,50.43
2018-03-24T15:59:58.733Z,59.37
2018-03-24T16:02:26.226Z,46.63
2018-03-24T16:04:53.683Z,49.00
2018-03-24T16:07:21.154Z,53.73
2018-03-24T16:09:48.632Z,51.53
2018-03-24T16:12:16.122Z,46.50
2018-03-24T16:14:43.601Z,52.97
2018-03-24T16:17:11.057Z,52.67
2018-03-24T16:19:38.513Z,49.23
2018-03-24T16:22:07.931Z,56.93
2018-03-24T16:24:36.374Z,53.07
2018-03-24T16:27:03.839Z,59.13
2018-03-24T16:29:31.294Z,51.17
2018-03-24T16:31:58.892Z,52.57
2018-03-24T16:34:26.353Z,47.40
2018-03-24T16:36:53.897Z,48.23
2018-03-24T16:39:21.396Z,50.97
2018-03-24T16:41:48.837Z,53.27
2018-03-24T16:44:16.418Z,56.10
2018-03-24T16:46:43.921Z,55.60
2018-03-24T16:49:11.389Z,53.27
2018-03-24T16:51:38.869Z,59.80
2018-03-24T16:54:06.355Z,54.83
2018-03-24T16:56:33.842Z,58.40
2018-03-24T16:59:02.200Z,55.23
2018-03-24T17:01:29.669Z,52.63
2018-03-24T18:25:54.204Z,65.50
2018-03-24T18:28:21.773Z,72.03
2018-03-24T18:30:49.405Z,58.73
2018-03-24T18:33:16.876Z,65.12
2018-03-24T18:35:45.331Z,60.00
2018-03-24T18:38:14.087Z,58.07
2018-03-24T18:40:41.544Z,63.87
2018-03-24T18:43:10.965Z,59.30
2018-03-24T18:45:38.421Z,66.90
2018-03-24T18:48:06.847Z,59.57
2018-03-24T18:50:34.301Z,61.93
2018-03-24T18:53:01.761Z,57.97
2018-03-24T18:55:29.241Z,63.43
2018-03-24T18:57:56.822Z,58.83
2018-03-24T19:00:24.271Z,61.60
2018-03-24T19:02:51.748Z,53.70
2018-03-24T19:05:19.232Z,60.77
2018-03-24T19:07:46.756Z,60.27
2018-03-24T19:10:14.218Z,58.13
2018-03-24T19:12:41.785Z,53.90
2018-03-24T19:15:09.318Z,60.80
2018-03-24T19:17:36.848Z,58.53
2018-03-24T19:20:04.337Z,50.07
2018-03-24T19:22:31.873Z,56.87
2018-03-24T19:24:59.322Z,57.67
2018-03-24T19:27:27.717Z,54.10
2018-03-24T19:29:56.198Z,51.77
2018-03-24T19:32:25.687Z,48.53
2018-03-24T19:34:53.153Z,47.47
2018-03-24T19:37:20.637Z,48.83
2018-03-24T19:39:48.097Z,50.57
2018-03-24T19:42:15.565Z,51.50
2018-03-24T19:44:43.057Z,51.37
2018-03-24T19:47:10.535Z,55.70
2018-03-24T19:49:38.964Z,52.37
2018-03-24T19:52:07.431Z,52.53
2018-03-24T19:54:34.982Z,49.20
2018-03-24T19:57:02.458Z,54.10
2018-03-24T19:59:29.991Z,52.20
2018-03-24T20:01:57.510Z,51.33
2018-03-24T20:04:24.992Z,48.73
2018-03-24T20:06:52.508Z,47.67
2018-03-24T20:09:20.027Z,49.40
2018-03-24T20:11:47.517Z,57.37
2018-03-24T20:14:20.702Z,50.00
2018-03-24T20:16:48.201Z,49.60
2018-03-24T20:19:18.987Z,55.83
2018-03-24T20:21:46.526Z,58.27
2018-03-24T20:24:13.947Z,53.30
2018-03-24T20:26:41.418Z,49.43
2018-03-24T20:29:08.915Z,54.90
2018-03-24T20:31:36.481Z,50.13
2018-03-24T20:34:04.616Z,56.70
2018-03-24T20:36:33.060Z,53.53
2018-03-24T20:39:00.512Z,49.30
2018-03-24T20:41:28.939Z,58.20
2018-03-24T20:43:56.416Z,53.73
2018-03-24T20:46:23.971Z,46.83
2018-03-24T20:48:51.457Z,52.93
2018-03-24T20:51:20.957Z,45.10
2018-03-24T20:53:48.434Z,51.87
2018-03-24T20:56:15.938Z,48.80
2018-03-24T20:58:43.397Z,50.63
2018-03-24T21:01:10.909Z,53.13
2018-03-24T21:03:38.463Z,47.47
2018-03-24T21:06:05.938Z,48.27
2018-03-24T21:08:33.482Z,42.47
2018-03-24T21:11:00.961Z,48.87
2018-03-24T21:13:30.462Z,44.97
2018-03-24T21:15:57.924Z,41.50
2018-03-24T21:18:25.456Z,51.87
2018-03-24T21:20:53.008Z,43.73
2018-03-24T21:23:20.458Z,43.90
2018-03-24T21:25:48.953Z,40.17
2018-03-24T21:28:16.414Z,45.60
2018-03-24T21:30:43.891Z,46.83
2018-03-24T21:33:11.348Z,43.20
2018-03-24T21:35:39.794Z,43.07
2018-03-24T21:38:07.249Z,46.30
2018-03-24T21:40:34.689Z,46.07
2018-03-24T21:43:02.154Z,38.17
2018-03-24T21:45:29.659Z,41.57
2018-03-24T21:47:57.087Z,47.37
2018-03-24T21:50:24.550Z,42.10
2018-03-24T21:52:52.012Z,43.70
2018-03-24T21:55:19.565Z,51.10
2018-03-24T21:57:48.047Z,43.73
2018-03-24T22:00:15.513Z,44.13
2018-03-24T22:02:42.965Z,45.57
2018-03-24T22:05:10.417Z,43.80
2018-03-24T22:07:38.051Z,49.07
2018-03-24T22:10:05.525Z,43.50
2018-03-24T22:12:33.001Z,51.87
2018-03-24T22:15:00.522Z,41.73
2018-03-24T22:17:28.047Z,45.67
2018-03-24T22:19:55.545Z,45.03
2018-03-24T22:22:23.066Z,45.00
2018-03-24T22:24:50.513Z,43.50
2018-03-24T22:27:17.972Z,50.83
2018-03-24T22:29:45.437Z,46.97
2018-03-24T22:32:12.916Z,46.87
2018-03-24T22:34:40.366Z,43.87
2018-03-24T22:37:07.827Z,40.63
2018-03-24T22:39:35.293Z,43.20
2018-03-24T22:42:02.755Z,39.97
2018-03-24T22:44:30.223Z,48.27
2018-03-24T22:46:57.699Z,40.90
2018-03-24T22:49:25.163Z,41.17
2018-03-24T22:51:53.647Z,39.30
2018-03-24T22:54:21.106Z,39.47
2018-03-24T22:56:48.577Z,45.03
2018-03-24T22:59:16.035Z,41.50
2018-03-24T23:01:43.513Z,41.63
2018-03-24T23:04:10.957Z,43.63
2018-03-24T23:06:38.422Z,38.83
2018-03-24T23:09:05.876Z,39.17
2018-03-24T23:11:33.363Z,37.00
2018-03-24T23:14:00.810Z,37.87
2018-03-24T23:16:29.268Z,39.55
2018-03-24T23:18:56.751Z,37.73
2018-03-24T23:21:24.266Z,34.07
2018-03-24T23:23:51.723Z,39.17
2018-03-24T23:26:19.230Z,44.27
2018-03-24T23:28:46.716Z,36.97
2018-03-24T23:31:14.196Z,36.07
2018-03-24T23:33:41.665Z,41.65
2018-03-24T23:36:10.057Z,36.00
2018-03-24T23:38:37.514Z,36.37
2018-03-24T23:41:05.016Z,35.37
2018-03-24T23:43:32.462Z,35.83
2018-03-24T23:46:00.010Z,37.80
2018-03-24T23:48:27.465Z,41.47
2018-03-24T23:50:54.951Z,37.10
2018-03-24T23:53:22.412Z,40.80
2018-03-24T23:55:49.917Z,41.37
2018-03-24T23:58:17.364Z,35.07
